createdAt,value
2019-01-20T00:00:01.980Z,85.04
2019-01-20T00:02:49.074Z,85.28
2019-01-20T00:05:36.284Z,84.12
2019-01-20T00:08:23.748Z,83.53
2019-01-20T00:11:16.561Z,83.95
2019-01-20T00:13:58.369Z,83.75
2019-01-20T00:16:45.914Z,84.02
2019-01-20T00:19:33.588Z,84.05
2019-01-20T00:22:20.822Z,84.00
2019-01-20T00:25:08.331Z,83.95
2019-01-20T00:27:55.691Z,83.96
2019-01-20T00:30:43.454Z,83.94
2019-01-20T00:33:31.111Z,84.01
2019-01-20T00:36:18.408Z,82.94
2019-01-20T00:39:06.939Z,83.14
2019-01-20T00:41:58.762Z,82.21
2019-01-20T00:44:46.117Z,82.44
2019-01-20T00:47:33.878Z,82.49
2019-01-20T00:50:21.270Z,81.71
2019-01-20T00:53:08.862Z,82.02
2019-01-20T00:55:56.167Z,81.94
2019-01-20T00:58:51.247Z,81.98
2019-01-20T01:01:39.116Z,81.99
2019-01-20T01:04:26.433Z,82.45
2019-01-20T01:07:21.807Z,81.88
2019-01-20T01:10:08.854Z,81.33
2019-01-20T01:12:55.829Z,81.97
2019-01-20T01:15:43.356Z,82.66
2019-01-20T01:18:31.837Z,82.82
2019-01-20T01:21:28.529Z,83.07
2019-01-20T01:24:15.936Z,83.13
2019-01-20T01:27:03.728Z,83.15
2019-01-20T01:29:51.153Z,83.10
2019-01-20T01:35:45.163Z,83.45
2019-01-20T01:38:32.255Z,83.57
2019-01-20T01:41:19.630Z,83.67
2019-01-20T01:44:06.995Z,83.73
2019-01-20T01:46:54.516Z,83.83
2019-01-20T01:49:41.955Z,83.59
2019-01-20T01:52:29.850Z,83.40
2019-01-20T01:55:17.247Z,83.29
2019-01-20T01:58:05.342Z,83.22
2019-01-20T02:00:53.067Z,83.16
2019-01-20T02:03:40.247Z,83.01
2019-01-20T02:06:30.161Z,82.97
2019-01-20T02:09:30.110Z,82.92
2019-01-20T02:12:18.050Z,82.93
2019-01-20T02:15:05.975Z,82.96
2019-01-20T02:17:54.037Z,82.95
2019-01-20T02:20:41.794Z,83.04
2019-01-20T02:23:29.960Z,83.34
2019-01-20T02:26:19.360Z,83.54
2019-01-20T02:29:06.912Z,83.95
2019-01-20T02:31:55.390Z,83.19
2019-01-20T02:34:42.504Z,82.78
2019-01-20T02:37:29.374Z,83.08
2019-01-20T02:40:18.167Z,83.27
2019-01-20T02:43:05.586Z,82.54
2019-01-20T02:45:52.771Z,82.67
2019-01-20T02:48:40.512Z,82.73
2019-01-20T02:51:29.092Z,82.92
2019-01-20T02:54:17.011Z,82.85
2019-01-20T02:57:04.608Z,82.90
2019-01-20T02:59:52.375Z,82.95
2019-01-20T03:02:40.096Z,82.90
2019-01-20T03:05:27.063Z,82.89
2019-01-20T03:08:14.343Z,82.28
2019-01-20T03:11:01.625Z,81.49
2019-01-20T03:13:49.287Z,81.81
2019-01-20T03:16:37.138Z,81.97
2019-01-20T03:19:24.375Z,82.14
2019-01-20T03:22:12.562Z,81.52
2019-01-20T03:25:00.432Z,81.78
2019-01-20T03:27:48.028Z,82.05
2019-01-20T03:30:36.045Z,82.40
2019-01-20T03:33:23.610Z,82.48
2019-01-20T03:36:11.309Z,82.46
2019-01-20T03:38:58.719Z,82.57
2019-01-20T03:44:52.019Z,82.87
2019-01-20T03:47:39.404Z,83.77
2019-01-20T03:53:39.708Z,82.45
2019-01-20T03:56:26.952Z,81.96
2019-01-20T04:02:20.568Z,81.29
2019-01-20T04:05:08.703Z,81.91
2019-01-20T04:07:56.653Z,82.47
2019-01-20T04:10:44.237Z,82.55
2019-01-20T04:13:31.543Z,82.79
2019-01-20T04:16:19.013Z,83.12
2019-01-20T04:19:07.308Z,83.03
2019-01-20T04:21:57.695Z,82.96
2019-01-20T04:24:53.058Z,83.00
2019-01-20T04:27:40.871Z,82.17
2019-01-20T04:30:28.662Z,82.33
2019-01-20T04:33:16.095Z,82.52
2019-01-20T04:36:03.283Z,82.62
2019-01-20T04:38:50.757Z,82.64
2019-01-20T04:41:38.254Z,82.67
2019-01-20T04:44:26.914Z,82.75
2019-01-20T04:47:15.938Z,83.09
2019-01-20T04:50:04.129Z,83.35
2019-01-20T04:52:53.198Z,83.45
2019-01-20T04:55:40.830Z,83.38
2019-01-20T04:58:28.347Z,83.39
2019-01-20T05:01:19.096Z,83.41
2019-01-20T05:04:06.288Z,83.36
2019-01-20T05:06:56.465Z,83.44
2019-01-20T05:09:42.933Z,83.43
2019-01-20T05:12:37.585Z,83.46
2019-01-20T05:15:20.934Z,83.65
2019-01-20T05:18:08.460Z,83.60
2019-01-20T05:20:56.106Z,83.86
2019-01-20T05:23:43.845Z,83.79
2019-01-20T05:26:31.564Z,83.76
2019-01-20T05:29:19.368Z,83.80
2019-01-20T05:32:07.357Z,83.78
2019-01-20T05:34:56.980Z,83.77
2019-01-20T05:37:55.009Z,84.06
2019-01-20T05:40:45.330Z,84.28
2019-01-20T05:43:33.801Z,84.16
2019-01-20T05:46:21.147Z,83.93
2019-01-20T05:49:08.685Z,83.80
2019-01-20T05:51:57.235Z,83.86
2019-01-20T05:54:45.216Z,83.81
2019-01-20T05:57:32.738Z,83.78
2019-01-20T06:00:20.836Z,83.76
2019-01-20T06:03:08.318Z,84.27
2019-01-20T06:05:55.537Z,83.61
2019-01-20T06:08:44.131Z,84.12
2019-01-20T06:11:31.075Z,83.92
2019-01-20T06:14:18.726Z,83.80
2019-01-20T06:17:05.949Z,83.95
2019-01-20T06:19:53.379Z,84.25
2019-01-20T06:22:40.693Z,84.62
2019-01-20T06:25:28.137Z,83.96
2019-01-20T06:28:15.681Z,84.47
2019-01-20T06:31:03.058Z,84.56
2019-01-20T06:33:50.709Z,84.69
2019-01-20T06:36:39.275Z,83.98
2019-01-20T06:39:27.217Z,84.34
2019-01-20T06:42:14.777Z,84.38
2019-01-20T06:45:02.261Z,84.63
2019-01-20T06:47:49.803Z,84.56
2019-01-20T06:50:37.422Z,83.60
2019-01-20T06:53:25.656Z,83.70
2019-01-20T06:56:13.284Z,82.96
2019-01-20T06:59:01.323Z,83.17
2019-01-20T07:01:48.996Z,82.53
2019-01-20T07:04:36.575Z,82.81
2019-01-20T07:07:24.036Z,83.15
2019-01-20T07:10:11.428Z,83.39
2019-01-20T07:12:59.015Z,82.74
2019-01-20T07:15:47.970Z,83.03
2019-01-20T07:18:36.020Z,82.79
2019-01-20T07:21:24.162Z,83.46
2019-01-20T07:24:11.860Z,84.01
2019-01-20T07:26:59.850Z,84.25
2019-01-20T07:29:47.469Z,84.38
2019-01-20T07:32:34.738Z,84.48
2019-01-20T07:35:23.417Z,84.69
2019-01-20T07:38:12.091Z,84.67
2019-01-20T07:40:59.844Z,83.86
2019-01-20T07:43:48.156Z,84.02
2019-01-20T07:46:36.001Z,84.06
2019-01-20T07:49:24.156Z,83.20
2019-01-20T07:52:11.976Z,83.57
2019-01-20T07:54:59.866Z,83.88
2019-01-20T07:57:47.550Z,84.11
2019-01-20T08:00:35.750Z,83.34
2019-01-20T08:03:23.193Z,84.06
2019-01-20T08:06:10.907Z,84.59
2019-01-20T08:08:59.450Z,84.84
2019-01-20T08:11:46.512Z,84.97
2019-01-20T08:14:34.233Z,85.05
2019-01-20T08:17:21.874Z,85.25
2019-01-20T08:20:21.161Z,85.36
2019-01-20T08:23:09.472Z,85.52
2019-01-20T08:29:04.772Z,85.62
2019-01-20T08:31:52.214Z,85.75
2019-01-20T08:34:39.922Z,85.92
2019-01-20T08:37:28.890Z,84.72
2019-01-20T08:40:20.654Z,85.25
2019-01-20T08:43:08.689Z,85.54
2019-01-20T08:46:02.817Z,85.67
2019-01-20T08:48:51.261Z,85.73
2019-01-20T08:51:39.484Z,85.73
2019-01-20T08:54:26.952Z,85.81
2019-01-20T08:57:14.998Z,85.67
2019-01-20T09:00:02.557Z,85.38
2019-01-20T09:02:50.215Z,85.34
2019-01-20T09:05:37.499Z,85.20
2019-01-20T09:08:24.876Z,85.14
2019-01-20T09:11:12.069Z,85.15
2019-01-20T09:13:59.514Z,85.06
2019-01-20T09:16:47.889Z,84.87
2019-01-20T09:19:35.050Z,84.78
2019-01-20T09:22:22.599Z,83.23
2019-01-20T09:25:12.151Z,83.34
2019-01-20T09:27:59.661Z,83.41
2019-01-20T09:30:50.900Z,83.34
2019-01-20T09:33:38.082Z,83.32
2019-01-20T09:36:25.627Z,82.99
2019-01-20T09:39:20.729Z,82.89
2019-01-20T09:42:08.280Z,82.74
2019-01-20T09:44:55.667Z,82.38
2019-01-20T09:47:43.190Z,80.61
2019-01-20T09:50:30.390Z,80.91
2019-01-20T09:53:17.977Z,80.86
2019-01-20T09:56:05.487Z,80.99
2019-01-20T09:58:52.820Z,81.04
2019-01-20T10:01:40.489Z,81.08
2019-01-20T10:04:27.728Z,80.96
2019-01-20T10:07:15.171Z,80.96
2019-01-20T10:10:02.616Z,80.67
2019-01-20T10:12:50.172Z,80.18
2019-01-20T10:15:37.545Z,79.32
2019-01-20T10:18:32.123Z,77.41
2019-01-20T10:21:22.325Z,78.28
2019-01-20T10:24:12.782Z,76.36
2019-01-20T10:27:00.313Z,76.92
2019-01-20T10:29:47.874Z,77.45
2019-01-20T10:32:35.599Z,76.95
2019-01-20T10:35:38.778Z,76.89
2019-01-20T10:38:26.101Z,76.84
2019-01-20T10:41:13.747Z,77.05
2019-01-20T10:44:02.403Z,73.80
2019-01-20T10:46:48.893Z,74.14
2019-01-20T10:49:44.454Z,76.06
2019-01-20T10:52:34.576Z,76.75
2019-01-20T10:55:22.052Z,76.04
2019-01-20T11:01:16.190Z,72.51
2019-01-20T11:04:08.718Z,70.80
2019-01-20T11:07:03.867Z,71.97
2019-01-20T11:09:52.783Z,72.98
2019-01-20T11:12:41.578Z,72.73
2019-01-20T11:15:29.077Z,70.46
2019-01-20T11:18:16.456Z,72.33
2019-01-20T11:24:17.868Z,72.80
2019-01-20T11:27:05.233Z,73.70
2019-01-20T11:29:52.647Z,70.00
2019-01-20T11:32:42.417Z,71.53
2019-01-20T11:35:28.555Z,71.74
2019-01-20T11:38:16.176Z,72.14
2019-01-20T11:41:03.608Z,73.27
2019-01-20T11:43:51.318Z,73.12
2019-01-20T11:46:38.802Z,72.55
2019-01-20T11:49:25.957Z,72.86
2019-01-20T11:52:13.647Z,73.00
2019-01-20T11:55:01.846Z,73.00
2019-01-20T11:57:54.152Z,73.24
2019-01-20T12:00:42.262Z,73.02
2019-01-20T12:03:38.616Z,72.84
2019-01-20T12:06:25.806Z,70.01
2019-01-20T12:09:13.311Z,67.69
2019-01-20T12:12:01.067Z,70.31
2019-01-20T12:14:50.464Z,66.54
2019-01-20T12:17:37.853Z,68.72
2019-01-20T12:20:25.319Z,65.50
2019-01-20T12:26:19.484Z,67.87
2019-01-20T12:29:06.662Z,68.76
2019-01-20T12:31:54.246Z,69.05
2019-01-20T12:34:42.111Z,69.15
2019-01-20T12:37:29.352Z,70.20
2019-01-20T12:40:41.334Z,70.28
2019-01-20T12:43:29.578Z,70.64
2019-01-20T12:46:17.905Z,66.24
2019-01-20T12:49:05.535Z,67.40
2019-01-20T12:51:53.254Z,69.03
2019-01-20T12:54:40.550Z,69.20
2019-01-20T12:57:27.900Z,70.47
2019-01-20T13:00:18.037Z,70.58
2019-01-20T13:03:05.576Z,70.50
2019-01-20T13:05:52.912Z,70.63
2019-01-20T13:08:40.519Z,70.33
2019-01-20T13:11:28.617Z,69.38
2019-01-20T13:17:22.228Z,69.89
2019-01-20T13:20:09.790Z,70.14
2019-01-20T13:22:57.699Z,70.32
2019-01-20T13:25:46.324Z,70.41
2019-01-20T13:28:33.727Z,70.30
2019-01-20T13:31:21.093Z,70.59
2019-01-20T13:34:08.525Z,70.35
2019-01-20T13:36:58.005Z,69.90
2019-01-20T13:39:45.172Z,69.86
2019-01-20T13:42:34.999Z,67.32
2019-01-20T13:45:23.302Z,68.99
2019-01-20T13:48:13.357Z,69.40
2019-01-20T13:51:02.146Z,69.27
2019-01-20T13:53:49.173Z,70.12
2019-01-20T13:56:36.552Z,70.38
2019-01-20T13:59:24.153Z,70.49
2019-01-20T14:02:11.540Z,70.72
2019-01-20T14:04:59.019Z,70.94
2019-01-20T14:07:46.763Z,70.61
2019-01-20T14:10:34.473Z,71.40
2019-01-20T14:13:22.038Z,71.39
2019-01-20T14:16:09.680Z,71.27
2019-01-20T14:19:07.358Z,72.02
2019-01-20T14:21:55.424Z,72.52
2019-01-20T14:24:44.914Z,72.07
2019-01-20T14:27:33.283Z,69.81
2019-01-20T14:30:20.906Z,70.51
2019-01-20T14:33:11.868Z,71.49
2019-01-20T14:36:00.530Z,72.10
2019-01-20T14:38:49.224Z,72.50
2019-01-20T14:41:36.659Z,72.63
2019-01-20T14:44:23.861Z,72.50
2019-01-20T14:47:11.572Z,72.49
2019-01-20T14:50:00.436Z,72.52
2019-01-20T14:52:47.646Z,72.72
2019-01-20T14:55:36.075Z,72.92
2019-01-20T14:58:23.064Z,70.85
2019-01-20T15:01:10.744Z,71.79
2019-01-20T15:03:59.226Z,72.30
2019-01-20T15:06:47.110Z,72.56
2019-01-20T15:09:34.462Z,72.75
2019-01-20T15:12:21.784Z,70.85
2019-01-20T15:15:09.711Z,69.67
2019-01-20T15:17:57.645Z,71.21
2019-01-20T15:20:45.942Z,72.00
2019-01-20T15:23:33.300Z,70.46
2019-01-20T15:26:24.142Z,71.79
2019-01-20T15:29:09.042Z,72.65
2019-01-20T15:31:58.588Z,72.85
2019-01-20T15:34:46.352Z,73.24
2019-01-20T15:37:35.430Z,73.69
2019-01-20T15:43:37.846Z,74.06
2019-01-20T15:46:34.199Z,74.62
2019-01-20T15:49:31.983Z,74.86
2019-01-20T15:52:24.096Z,75.20
2019-01-20T15:55:12.668Z,75.26
2019-01-20T15:57:59.828Z,75.54
2019-01-20T16:00:51.904Z,74.75
2019-01-20T16:03:40.204Z,75.91
2019-01-20T16:06:36.198Z,76.78
2019-01-20T16:09:29.208Z,77.16
2019-01-20T16:12:19.519Z,77.03
2019-01-20T16:18:19.272Z,76.81
2019-01-20T16:21:10.925Z,76.85
2019-01-20T16:24:00.440Z,76.90
2019-01-20T16:26:47.565Z,77.17
2019-01-20T16:29:36.630Z,77.55
2019-01-20T16:32:26.347Z,76.68
2019-01-20T16:35:16.330Z,77.50
2019-01-20T16:38:05.811Z,77.79
2019-01-20T16:40:55.655Z,77.83
2019-01-20T16:43:47.417Z,76.73
2019-01-20T16:46:37.695Z,77.41
2019-01-20T16:49:27.858Z,77.73
2019-01-20T17:14:08.181Z,78.35
2019-01-20T17:16:55.025Z,78.57
2019-01-20T17:19:57.974Z,78.77
2019-01-20T17:22:55.536Z,77.69
2019-01-20T17:25:42.844Z,78.17
2019-01-20T17:28:30.879Z,78.55
2019-01-20T17:34:26.684Z,78.87
2019-01-20T17:37:14.470Z,78.90
2019-01-20T17:40:03.309Z,78.98
2019-01-20T17:42:57.157Z,78.99
2019-01-20T17:45:53.298Z,79.07
2019-01-20T17:48:42.768Z,79.16
2019-01-20T17:51:30.021Z,79.01
2019-01-20T17:54:19.174Z,79.19
2019-01-20T17:57:06.981Z,79.33
2019-01-20T18:02:59.837Z,79.79
2019-01-20T18:05:49.894Z,80.10
2019-01-20T18:08:45.969Z,80.10
2019-01-20T18:11:33.308Z,80.54
2019-01-20T18:14:20.777Z,80.46
2019-01-20T18:17:07.660Z,80.34
2019-01-20T18:19:55.155Z,79.33
2019-01-20T18:22:42.841Z,79.76
2019-01-20T18:25:32.145Z,80.03
2019-01-20T18:28:20.653Z,79.25
2019-01-20T18:31:08.588Z,80.38
2019-01-20T18:33:55.947Z,79.61
2019-01-20T18:36:43.180Z,80.94
2019-01-20T18:39:33.108Z,81.46
2019-01-20T18:42:20.473Z,81.82
2019-01-20T18:45:23.412Z,81.78
2019-01-20T18:51:17.203Z,81.84
2019-01-20T18:54:04.792Z,81.74
2019-01-20T18:56:54.923Z,80.57
2019-01-20T18:59:42.116Z,79.17
2019-01-20T19:02:45.565Z,79.70
2019-01-20T19:08:47.063Z,80.11
2019-01-20T19:11:34.699Z,80.24
2019-01-20T19:17:28.066Z,80.45
2019-01-20T19:29:52.443Z,78.76
2019-01-20T19:32:40.019Z,79.35
2019-01-20T19:35:28.302Z,79.73
2019-01-20T19:38:14.431Z,80.00
2019-01-20T19:41:01.766Z,80.23
2019-01-20T19:43:49.609Z,80.27
2019-01-20T19:46:37.248Z,80.35
2019-01-20T19:49:25.050Z,80.57
2019-01-20T19:52:18.753Z,79.84
2019-01-20T19:55:10.057Z,80.90
2019-01-20T20:01:03.329Z,81.60
2019-01-20T20:03:51.461Z,81.72
2019-01-20T20:06:48.575Z,81.60
2019-01-20T20:09:38.866Z,80.50
2019-01-20T20:12:32.592Z,80.89
2019-01-20T20:25:01.518Z,81.72
2019-01-20T20:27:50.654Z,81.70
2019-01-20T20:30:49.977Z,81.96
2019-01-20T20:33:37.581Z,81.85
2019-01-20T20:36:26.341Z,81.88
2019-01-20T20:39:19.821Z,81.81
2019-01-20T20:42:08.697Z,81.84
2019-01-20T20:45:00.838Z,81.84
2019-01-20T20:47:51.925Z,82.00
2019-01-20T20:50:41.505Z,80.99
2019-01-20T20:56:44.718Z,81.49
2019-01-20T20:59:34.009Z,81.69
2019-01-20T21:02:24.812Z,81.71
2019-01-20T21:05:15.405Z,81.69
2019-01-20T21:08:03.766Z,81.94
2019-01-20T21:10:52.269Z,82.12
2019-01-20T21:13:39.646Z,82.25
2019-01-20T21:16:28.041Z,82.49
2019-01-20T21:19:15.118Z,82.55
2019-01-20T21:22:03.050Z,82.43
2019-01-20T21:25:00.803Z,82.35
2019-01-20T21:27:48.258Z,82.22
2019-01-20T21:30:36.538Z,82.10
2019-01-20T21:33:24.400Z,82.11
2019-01-20T21:36:19.837Z,82.39
2019-01-20T21:39:07.955Z,82.60
2019-01-20T21:41:55.401Z,82.76
2019-01-20T21:44:43.853Z,82.50
2019-01-20T21:47:31.268Z,82.37
2019-01-20T21:50:19.715Z,82.25
2019-01-20T21:53:06.845Z,82.13
2019-01-20T21:55:53.779Z,82.10
2019-01-20T21:58:41.653Z,82.03
2019-01-20T22:01:29.389Z,82.07
2019-01-20T22:04:17.168Z,82.16
2019-01-20T22:07:04.555Z,81.36
2019-01-20T22:12:58.606Z,82.13
2019-01-20T22:15:45.705Z,82.16
2019-01-20T22:18:32.959Z,82.29
2019-01-20T22:21:21.223Z,81.42
2019-01-20T22:27:14.381Z,82.01
2019-01-20T22:30:03.019Z,82.00
2019-01-20T22:32:51.581Z,81.88
2019-01-20T22:35:39.816Z,81.91
2019-01-20T22:38:28.734Z,81.82
2019-01-20T22:44:22.576Z,82.35
2019-01-20T22:50:23.483Z,82.06
2019-01-20T22:53:10.687Z,80.96
2019-01-20T22:55:58.175Z,79.94
2019-01-20T22:58:47.936Z,79.11
2019-01-20T23:04:41.540Z,80.28
2019-01-20T23:07:29.384Z,80.58
2019-01-20T23:13:23.118Z,80.49
2019-01-20T23:16:23.030Z,81.71
2019-01-20T23:22:19.284Z,81.56
2019-01-20T23:25:06.941Z,82.66
2019-01-20T23:27:55.328Z,83.13
2019-01-20T23:33:49.321Z,84.03
2019-01-20T23:36:36.916Z,84.09
2019-01-20T23:39:24.713Z,84.21
2019-01-20T23:42:12.089Z,84.53
2019-01-20T23:45:01.016Z,84.39
2019-01-20T23:50:54.851Z,84.96
2019-01-20T23:53:42.021Z,83.99
2019-01-20T23:56:29.608Z,84.62
2019-01-20T23:59:17.530Z,84.96
